createdAt,value
2023-04-15T00:00:10.100Z,8.40
2023-04-15T00:04:17.328Z,8.20
2023-04-15T00:08:20.547Z,8.20
2023-04-15T00:12:23.480Z,8.20
2023-04-15T00:16:26.696Z,8.20
2023-04-15T00:20:31.380Z,8.20
2023-04-15T00:24:34.142Z,8.10
2023-04-15T00:28:36.952Z,8.20
2023-04-15T00:32:39.805Z,8.00
2023-04-15T00:36:44.690Z,8.00
2023-04-15T00:40:48.289Z,7.90
2023-04-15T00:44:51.455Z,8.00
2023-04-15T00:48:55.487Z,7.90
2023-04-15T00:52:59.661Z,8.10
2023-04-15T00:57:03.498Z,8.20
2023-04-15T01:01:08.026Z,7.90
2023-04-15T01:05:11.107Z,7.90
2023-04-15T01:09:15.326Z,7.90
2023-04-15T01:13:18.136Z,7.90
2023-04-15T01:17:21.077Z,7.80
2023-04-15T01:21:24.761Z,8.00
2023-04-15T01:25:34.008Z,7.90
2023-04-15T01:29:39.334Z,7.90
2023-04-15T01:33:43.412Z,7.80
2023-04-15T01:37:46.492Z,8.00
2023-04-15T01:41:50.684Z,7.80
2023-04-15T01:45:53.718Z,7.80
2023-04-15T01:49:56.811Z,7.70
2023-04-15T01:53:59.833Z,7.70
2023-04-15T01:58:04.283Z,7.80
2023-04-15T02:02:07.108Z,7.80
2023-04-15T02:06:09.925Z,7.70
2023-04-15T02:10:13.510Z,7.90
2023-04-15T02:14:17.916Z,7.60
2023-04-15T02:18:20.774Z,7.50
2023-04-15T02:22:23.826Z,7.50
2023-04-15T02:26:26.723Z,7.50
2023-04-15T02:30:31.972Z,7.50
2023-04-15T02:34:41.154Z,7.60
2023-04-15T02:38:44.920Z,7.50
2023-04-15T02:42:49.689Z,7.40
2023-04-15T02:46:55.702Z,7.30
2023-04-15T02:51:12.757Z,7.40
2023-04-15T02:55:15.835Z,7.30
2023-04-15T02:59:19.018Z,7.50
2023-04-15T03:03:23.330Z,7.60
2023-04-15T03:07:26.203Z,7.50
2023-04-15T03:11:30.203Z,7.40
2023-04-15T03:15:34.022Z,7.20
2023-04-15T03:19:38.864Z,7.10
2023-04-15T03:23:41.998Z,7.20
2023-04-15T03:27:44.908Z,7.10
2023-04-15T03:31:49.131Z,7.10
2023-04-15T03:35:54.612Z,7.10
2023-04-15T03:39:57.480Z,7.10
2023-04-15T03:44:00.327Z,7.10
2023-04-15T03:48:16.529Z,7.10
2023-04-15T03:52:21.743Z,7.20
2023-04-15T03:56:24.638Z,7.20
2023-04-15T04:00:27.472Z,7.30
2023-04-15T04:04:30.420Z,7.20
2023-04-15T04:08:34.763Z,7.40
2023-04-15T04:12:37.638Z,7.10
2023-04-15T04:16:40.674Z,7.10
2023-04-15T04:20:43.666Z,7.20
2023-04-15T04:24:47.846Z,7.10
2023-04-15T04:28:50.729Z,7.20
2023-04-15T04:32:53.612Z,7.20
2023-04-15T04:36:56.640Z,7.10
2023-04-15T04:41:01.119Z,7.00
2023-04-15T04:45:04.131Z,7.10
2023-04-15T04:49:06.976Z,7.20
2023-04-15T04:53:09.921Z,7.20
2023-04-15T04:57:14.595Z,7.20
2023-04-15T05:01:17.430Z,7.30
2023-04-15T05:05:20.247Z,7.20
2023-04-15T05:09:23.137Z,7.20
2023-04-15T05:13:27.266Z,7.30
2023-04-15T05:17:31.868Z,7.40
2023-04-15T05:21:34.852Z,7.30
2023-04-15T05:25:37.703Z,7.40
2023-04-15T05:29:41.867Z,7.30
2023-04-15T05:33:44.832Z,7.20
2023-04-15T05:37:47.669Z,7.30
2023-04-15T05:41:50.577Z,7.30
2023-04-15T05:45:54.804Z,7.30
2023-04-15T05:49:59.082Z,7.40
2023-04-15T05:54:01.967Z,7.30
2023-04-15T05:58:04.834Z,7.40
2023-04-15T06:02:09.363Z,7.40
2023-04-15T06:06:12.273Z,7.50
2023-04-15T06:10:15.542Z,7.40
2023-04-15T06:14:18.430Z,7.50
2023-04-15T06:18:22.598Z,7.60
2023-04-15T06:22:26.022Z,7.70
2023-04-15T06:26:29.141Z,7.60
2023-04-15T06:30:32.046Z,7.60
2023-04-15T06:34:36.183Z,7.70
2023-04-15T06:38:39.131Z,7.70
2023-04-15T06:42:42.002Z,7.70
2023-04-15T06:46:44.909Z,7.80
2023-04-15T06:50:50.026Z,7.90
2023-04-15T06:54:52.740Z,7.90
2023-04-15T06:58:55.586Z,7.80
2023-04-15T07:02:58.524Z,7.90
2023-04-15T07:07:02.768Z,8.00
2023-04-15T07:11:06.166Z,8.00
2023-04-15T07:15:09.598Z,8.10
2023-04-15T07:19:12.690Z,8.10
2023-04-15T07:23:17.383Z,8.20
2023-04-15T07:27:20.329Z,8.30
2023-04-15T07:31:23.280Z,8.50
2023-04-15T07:35:26.693Z,8.70
2023-04-15T07:39:31.149Z,8.80
2023-04-15T07:43:34.068Z,8.90
2023-04-15T07:47:37.167Z,8.90
2023-04-15T07:51:40.008Z,9.00
2023-04-15T07:55:44.228Z,9.20
2023-04-15T07:59:47.018Z,9.40
2023-04-15T08:03:50.078Z,9.80
2023-04-15T08:07:55.364Z,9.90
2023-04-15T08:11:59.609Z,10.00
2023-04-15T08:16:19.692Z,10.00
2023-04-15T08:20:22.644Z,10.20
2023-04-15T08:24:27.363Z,10.40
2023-04-15T08:28:31.563Z,10.40
2023-04-15T08:32:34.521Z,10.60
2023-04-15T08:36:37.423Z,10.70
2023-04-15T08:40:43.376Z,10.70
2023-04-15T08:44:48.810Z,10.80
2023-04-15T08:48:52.188Z,10.90
2023-04-15T08:52:56.296Z,11.00
2023-04-15T08:56:59.611Z,11.10
2023-04-15T09:01:04.144Z,11.00
2023-04-15T09:05:09.460Z,11.00
2023-04-15T09:09:14.302Z,10.90
2023-04-15T09:13:17.182Z,10.90
2023-04-15T09:17:22.266Z,10.90
2023-04-15T09:21:25.932Z,11.00
2023-04-15T09:25:31.662Z,11.10
2023-04-15T09:29:36.960Z,11.20
2023-04-15T09:33:56.335Z,11.40
2023-04-15T09:38:04.856Z,11.40
2023-04-15T09:42:08.701Z,11.60
2023-04-15T09:46:11.664Z,11.90
2023-04-15T09:50:16.418Z,12.20
2023-04-15T09:54:21.422Z,12.40
2023-04-15T09:58:25.790Z,12.50
2023-04-15T10:02:31.340Z,13.00
2023-04-15T10:06:35.834Z,12.70
2023-04-15T10:10:39.062Z,12.60
2023-04-15T10:14:45.387Z,12.50
2023-04-15T10:18:50.713Z,12.40
2023-04-15T10:22:55.181Z,12.30
2023-04-15T10:26:58.694Z,12.40
2023-04-15T10:31:02.580Z,12.40
2023-04-15T10:35:07.147Z,12.60
2023-04-15T10:39:42.052Z,12.60
2023-04-15T10:43:50.530Z,12.70
2023-04-15T10:47:55.881Z,12.70
2023-04-15T10:52:00.121Z,12.80
2023-04-15T10:56:05.872Z,12.90
2023-04-15T11:00:13.909Z,13.10
2023-04-15T11:04:36.859Z,13.10
2023-04-15T11:08:57.229Z,13.10
2023-04-15T11:13:02.919Z,13.10
2023-04-15T11:17:05.792Z,13.00
2023-04-15T11:21:09.678Z,12.90
2023-04-15T11:25:12.495Z,12.80
2023-04-15T11:29:20.001Z,12.80
2023-04-15T11:33:24.009Z,12.80
2023-04-15T11:37:30.698Z,12.70
2023-04-15T11:41:33.604Z,12.50
2023-04-15T11:45:38.286Z,12.20
2023-04-15T11:49:41.558Z,12.00
2023-04-15T11:53:46.042Z,11.80
2023-04-15T11:57:48.957Z,11.50
2023-04-15T12:01:53.406Z,11.50
2023-04-15T12:06:11.565Z,11.30
2023-04-15T12:10:14.348Z,11.20
2023-04-15T12:14:23.738Z,11.10
2023-04-15T12:18:28.004Z,11.10
2023-04-15T12:22:30.872Z,11.10
2023-04-15T12:26:37.052Z,11.20
2023-04-15T12:30:50.225Z,11.30
2023-04-15T12:34:56.738Z,11.50
2023-04-15T12:38:59.552Z,11.80
2023-04-15T12:43:02.334Z,12.10
2023-04-15T12:47:05.711Z,12.30
2023-04-15T12:51:09.948Z,12.40
2023-04-15T12:55:12.897Z,12.50
2023-04-15T12:59:16.925Z,12.40
2023-04-15T13:03:19.898Z,12.30
2023-04-15T13:07:24.182Z,12.30
2023-04-15T13:11:27.389Z,12.40
2023-04-15T13:15:30.928Z,12.30
2023-04-15T13:19:33.702Z,12.20
2023-04-15T13:23:37.922Z,12.10
2023-04-15T13:27:40.750Z,11.90
2023-04-15T13:31:43.553Z,11.80
2023-04-15T13:35:46.397Z,11.70
2023-04-15T13:39:50.486Z,11.60
2023-04-15T13:43:53.259Z,11.60
2023-04-15T13:47:57.119Z,11.50
2023-04-15T13:51:59.853Z,11.30
2023-04-15T13:56:04.537Z,11.30
2023-04-15T14:00:08.590Z,11.30
2023-04-15T14:04:11.623Z,11.40
2023-04-15T14:08:14.955Z,11.40
2023-04-15T14:12:19.172Z,11.40
2023-04-15T14:16:22.083Z,11.50
2023-04-15T14:20:24.984Z,11.60
2023-04-15T14:24:28.460Z,11.80
2023-04-15T14:28:33.236Z,11.90
2023-04-15T14:32:36.225Z,12.00
2023-04-15T14:36:40.349Z,12.10
2023-04-15T14:40:43.278Z,12.10
2023-04-15T14:44:47.565Z,12.10
2023-04-15T14:48:51.758Z,12.10
2023-04-15T14:52:54.530Z,12.10
2023-04-15T14:56:57.374Z,12.00
2023-04-15T15:01:01.953Z,11.80
2023-04-15T15:05:06.187Z,11.80
2023-04-15T15:09:09.113Z,11.70
2023-04-15T15:13:12.667Z,11.70
2023-04-15T15:17:17.189Z,11.60
2023-04-15T15:21:20.040Z,11.40
2023-04-15T15:25:22.929Z,11.30
2023-04-15T15:29:25.848Z,11.20
2023-04-15T15:33:30.392Z,11.10
2023-04-15T15:37:33.542Z,10.80
2023-04-15T15:41:36.567Z,10.80
2023-04-15T15:45:40.318Z,10.80
2023-04-15T15:49:44.517Z,10.70
2023-04-15T15:53:47.469Z,10.70
2023-04-15T15:57:50.304Z,10.60
2023-04-15T16:01:54.159Z,10.70
2023-04-15T16:05:58.420Z,10.70
2023-04-15T16:10:01.212Z,10.50
2023-04-15T16:14:03.958Z,10.50
2023-04-15T16:18:06.766Z,10.40
2023-04-15T16:22:11.128Z,10.40
2023-04-15T16:26:14.017Z,10.20
2023-04-15T16:30:17.258Z,10.30
2023-04-15T16:34:20.109Z,10.20
2023-04-15T16:38:24.328Z,10.10
2023-04-15T16:42:27.373Z,10.10
2023-04-15T16:46:31.056Z,10.00
2023-04-15T16:50:34.070Z,9.90
2023-04-15T16:54:41.284Z,9.80
2023-04-15T16:58:44.442Z,9.80
2023-04-15T17:02:47.674Z,9.80
2023-04-15T17:06:50.622Z,9.80
2023-04-15T17:10:55.161Z,9.70
2023-04-15T17:14:57.929Z,9.70
2023-04-15T17:19:00.754Z,9.50
2023-04-15T17:23:03.522Z,9.50
2023-04-15T17:27:07.759Z,9.30
2023-04-15T17:31:10.984Z,9.30
2023-04-15T17:35:13.977Z,9.30
2023-04-15T17:39:16.862Z,9.10
2023-04-15T17:43:21.015Z,9.10
2023-04-15T17:47:23.892Z,9.20
2023-04-15T17:51:28.039Z,9.30
2023-04-15T17:55:42.683Z,9.20
2023-04-15T17:59:47.743Z,9.00
2023-04-15T18:03:50.879Z,9.00
2023-04-15T18:07:53.904Z,9.00
2023-04-15T18:11:57.254Z,9.20
2023-04-15T18:16:01.559Z,9.10
2023-04-15T18:20:04.809Z,9.20
2023-04-15T18:24:08.128Z,9.10
2023-04-15T18:28:11.063Z,9.10
2023-04-15T18:32:15.300Z,9.10
2023-04-15T18:36:18.191Z,8.90
2023-04-15T18:40:21.141Z,8.90
2023-04-15T18:44:24.288Z,9.00
2023-04-15T18:48:28.456Z,9.00
2023-04-15T18:52:31.655Z,9.00
2023-04-15T18:56:34.693Z,8.90
2023-04-15T19:00:41.440Z,8.90
2023-04-15T19:04:45.749Z,9.10
2023-04-15T19:08:48.640Z,8.80
2023-04-15T19:12:51.452Z,8.80
2023-04-15T19:16:54.417Z,8.80
2023-04-15T19:20:58.846Z,8.80
2023-04-15T19:25:01.720Z,9.00
2023-04-15T19:29:04.819Z,8.80
2023-04-15T19:33:07.916Z,8.90
2023-04-15T19:37:12.253Z,8.90
2023-04-15T19:41:15.382Z,8.80
2023-04-15T19:45:18.248Z,8.80
2023-04-15T19:49:21.165Z,8.80
2023-04-15T19:53:26.301Z,8.80
2023-04-15T19:57:29.100Z,8.90
2023-04-15T20:01:31.947Z,8.80
2023-04-15T20:05:35.808Z,8.70
2023-04-15T20:09:40.385Z,8.80
2023-04-15T20:13:43.642Z,8.80
2023-04-15T20:17:46.617Z,8.80
2023-04-15T20:21:50.831Z,8.70
2023-04-15T20:25:56.795Z,8.60
2023-04-15T20:29:59.665Z,8.60
2023-04-15T20:34:02.505Z,8.70
2023-04-15T20:38:05.692Z,8.70
2023-04-15T20:42:10.313Z,8.70
2023-04-15T20:46:20.588Z,8.70
2023-04-15T20:50:24.406Z,8.70
2023-04-15T20:54:27.249Z,8.60
2023-04-15T20:58:31.441Z,8.50
2023-04-15T21:02:34.484Z,8.40
2023-04-15T21:06:37.357Z,8.50
2023-04-15T21:10:40.403Z,8.50
2023-04-15T21:14:45.721Z,8.30
2023-04-15T21:18:48.593Z,8.50
2023-04-15T21:22:52.898Z,8.30
2023-04-15T21:26:56.591Z,8.40
2023-04-15T21:31:00.849Z,8.40
2023-04-15T21:35:03.711Z,8.30
2023-04-15T21:39:06.915Z,8.20
2023-04-15T21:43:10.044Z,8.30
2023-04-15T21:47:14.331Z,8.20
2023-04-15T21:51:17.351Z,8.10
2023-04-15T21:55:20.115Z,8.30
2023-04-15T21:59:22.822Z,8.20
2023-04-15T22:03:27.126Z,8.10
2023-04-15T22:07:29.946Z,8.20
2023-04-15T22:11:32.860Z,8.10
2023-04-15T22:15:36.072Z,8.00
2023-04-15T22:19:40.984Z,8.20
2023-04-15T22:23:47.206Z,8.00
2023-04-15T22:27:50.072Z,8.10
2023-04-15T22:31:52.971Z,8.30
2023-04-15T22:35:57.300Z,8.20
2023-04-15T22:40:01.692Z,8.30
2023-04-15T22:44:04.546Z,8.30
2023-04-15T22:48:07.360Z,8.10
2023-04-15T22:52:17.166Z,8.00
2023-04-15T22:56:26.511Z,8.20
2023-04-15T23:00:29.294Z,8.10
2023-04-15T23:04:32.290Z,8.10
2023-04-15T23:08:36.591Z,8.00
2023-04-15T23:12:39.411Z,7.90
2023-04-15T23:16:42.293Z,7.80
2023-04-15T23:20:45.230Z,7.70
2023-04-15T23:24:49.313Z,7.70
2023-04-15T23:28:52.103Z,7.70
2023-04-15T23:32:55.055Z,7.90
2023-04-15T23:36:57.878Z,8.10
2023-04-15T23:41:02.125Z,7.70
2023-04-15T23:45:05.388Z,7.80
2023-04-15T23:49:08.416Z,7.90
2023-04-15T23:53:11.364Z,7.80
2023-04-15T23:57:15.548Z,8.00
